createdAt,value
2023-03-18T08:37:15.002Z,6.77
2023-03-18T08:47:16.741Z,6.87
2023-03-18T08:57:18.736Z,6.33
2023-03-18T09:07:20.395Z,6.00
2023-03-18T09:17:31.978Z,5.03
2023-03-18T09:27:40.954Z,4.80
2023-03-18T09:37:43.711Z,3.30
2023-03-18T09:47:56.178Z,2.47
2023-03-18T09:58:03.459Z,2.10
2023-03-18T10:08:31.711Z,2.20
2023-03-18T10:18:43.242Z,2.37
2023-03-18T10:28:51.157Z,2.07
2023-03-18T10:38:54.967Z,2.20
2023-03-18T10:49:01.894Z,2.30
2023-03-18T10:59:18.722Z,2.17
2023-03-18T11:09:36.418Z,2.27
2023-03-18T11:19:41.705Z,2.40
2023-03-18T11:29:49.619Z,2.60
2023-03-18T11:39:54.718Z,1.97
2023-03-18T11:50:04.092Z,2.10
2023-03-18T12:00:18.855Z,2.50
2023-03-18T12:10:41.568Z,1.87
2023-03-18T12:20:53.447Z,1.80
2023-03-18T12:31:39.949Z,2.10
2023-03-18T12:41:54.636Z,2.30
2023-03-18T12:52:00.479Z,1.67
2023-03-18T13:02:28.353Z,9.57
2023-03-18T13:12:37.762Z,2.00
2023-03-18T13:22:42.388Z,2.17
2023-03-18T13:33:05.386Z,1.73
2023-03-18T13:43:14.392Z,1.90
2023-03-18T13:53:29.339Z,1.90
2023-03-18T14:03:43.027Z,1.97
2023-03-18T14:13:48.443Z,1.67
2023-03-18T14:24:12.488Z,1.90
2023-03-18T14:34:17.694Z,1.73
2023-03-18T14:44:26.952Z,1.85
2023-03-18T14:54:31.459Z,2.00
2023-03-18T15:04:33.292Z,1.80
2023-03-18T15:14:35.007Z,1.70
2023-03-18T15:24:37.534Z,2.20
2023-03-18T15:34:42.211Z,1.73
2023-03-18T15:44:46.622Z,1.80
2023-03-18T15:54:48.465Z,2.20
2023-03-18T16:04:50.341Z,2.00
2023-03-18T16:16:36.669Z,1.73
2023-03-18T16:26:38.449Z,1.97
2023-03-18T16:36:40.179Z,2.00
2023-03-18T16:51:46.711Z,1.87
2023-03-18T17:01:48.740Z,2.73
2023-03-18T17:11:53.038Z,2.47
2023-03-18T17:21:54.784Z,3.90
2023-03-18T17:31:56.848Z,2.73
2023-03-18T17:41:58.456Z,4.53
2023-03-18T17:52:00.153Z,4.80
2023-03-18T18:02:01.940Z,5.83
2023-03-18T18:12:05.052Z,7.63
2023-03-18T18:22:16.376Z,6.47
2023-03-18T18:32:18.909Z,7.33
2023-03-18T18:42:20.520Z,6.73
2023-03-18T18:52:22.186Z,8.87
2023-03-18T19:02:30.077Z,7.17
2023-03-18T19:12:31.904Z,9.53
2023-03-18T19:22:33.653Z,9.57
2023-03-18T19:32:35.282Z,10.60
2023-03-18T19:42:37.134Z,10.30
2023-03-18T19:52:38.734Z,7.67
2023-03-18T20:02:40.496Z,9.47
2023-03-18T20:12:50.250Z,10.43
2023-03-18T20:23:01.723Z,8.97
2023-03-18T20:33:05.477Z,12.80
2023-03-18T20:43:09.834Z,9.37
2023-03-18T20:56:58.944Z,8.67
2023-03-18T21:07:00.567Z,8.57
2023-03-18T21:17:02.254Z,8.53
2023-03-18T21:27:05.604Z,7.33
2023-03-18T21:37:15.387Z,7.30
2023-03-18T21:47:22.590Z,7.40
2023-03-18T21:57:25.695Z,6.10
2023-03-18T22:07:29.741Z,6.93
2023-03-18T22:17:33.734Z,7.17
2023-03-18T22:27:35.538Z,6.50
2023-03-18T22:37:37.136Z,6.70
2023-03-18T22:47:38.704Z,7.07
2023-03-18T23:04:00.685Z,7.57
2023-03-18T23:14:03.992Z,8.23
2023-03-18T23:24:05.970Z,6.73
2023-03-18T23:34:07.616Z,6.47
2023-03-18T23:44:09.221Z,7.07
2023-03-18T23:54:11.122Z,6.73
